Time;durP1;ratioP1;P1;durP2;ratioP2;P2;SDS_P1;SDS_P2;PMS_P1;PMS_P2;Temp;Humidity;BMP_temperature;BMP_pressure;BME280_temperature;BME280_humidity;BME280_pressure;Samples;Min_cycle;Max_cycle;Signal;HPM_P1;HPM_P2
2022/05/22 00:01:17;;;;;;;9.50;5.27;;;;;;;;;;5040841;28;20805;-73
2022/05/22 00:03:44;;;;;;;13.50;5.90;;;;;;;;;;5046572;28;20307;-74
2022/05/22 00:06:11;;;;;;;8.13;4.90;;;;;;;;;;5044304;28;20759;-75
2022/05/22 00:08:38;;;;;;;12.43;4.97;;;;;;;;;;5044808;28;20708;-74
2022/05/22 00:11:06;;;;;;;10.47;4.93;;;;;;;;;;5046399;28;20659;-75
2022/05/22 00:13:34;;;;;;;6.77;4.63;;;;;;;;;;5039363;28;20627;-74
2022/05/22 00:18:46;;;;;;;9.13;4.77;;;;;;;;;;5043832;28;20221;-75
2022/05/22 00:21:13;;;;;;;8.37;5.43;;;;;;;;;;5040553;28;20349;-74
2022/05/22 00:23:41;;;;;;;8.37;5.30;;;;;;;;;;5043408;28;20206;-73
2022/05/22 00:26:08;;;;;;;11.33;5.10;;;;;;;;;;5043869;28;20329;-75
2022/05/22 00:28:37;;;;;;;13.63;5.33;;;;;;;;;;5040964;28;20211;-75
2022/05/22 00:31:04;;;;;;;10.90;4.97;;;;;;;;;;5043625;28;20914;-76
2022/05/22 00:33:31;;;;;;;12.47;5.70;;;;;;;;;;5043227;28;20214;-75
2022/05/22 00:35:58;;;;;;;12.67;5.50;;;;;;;;;;5042423;28;20298;-75
2022/05/22 00:38:25;;;;;;;8.97;5.20;;;;;;;;;;5046865;28;20676;-75
2022/05/22 00:40:53;;;;;;;9.93;5.40;;;;;;;;;;5044453;28;20238;-75
2022/05/22 00:43:27;;;;;;;14.00;5.20;;;;;;;;;;5045079;28;20637;-75
2022/05/22 00:45:56;;;;;;;14.07;5.60;;;;;;;;;;5043825;28;20202;-75
2022/05/22 00:48:23;;;;;;;15.97;5.83;;;;;;;;;;5044123;28;20200;-75
2022/05/22 00:50:50;;;;;;;12.37;5.17;;;;;;;;;;5045218;28;20682;-75
2022/05/22 00:53:17;;;;;;;9.63;5.40;;;;;;;;;;5043079;28;20207;-75
2022/05/22 00:55:45;;;;;;;10.53;5.50;;;;;;;;;;5043606;28;20556;-75
2022/05/22 00:58:14;;;;;;;8.33;5.33;;;;;;;;;;5043667;28;20231;-75
2022/05/22 01:00:42;;;;;;;13.73;6.00;;;;;;;;;;5040451;28;20310;-75
2022/05/22 01:03:28;;;;;;;10.27;5.60;;;;;;;;;;5045153;28;20213;-75
2022/05/22 01:05:55;;;;;;;11.30;6.10;;;;;;;;;;5040571;28;20258;-75
2022/05/22 01:08:22;;;;;;;9.80;5.80;;;;;;;;;;5038874;28;20208;-75
2022/05/22 01:10:52;;;;;;;13.37;5.70;;;;;;;;;;5042054;28;20773;-75
2022/05/22 01:13:20;;;;;;;11.20;6.03;;;;;;;;;;5040469;28;20203;-75
2022/05/22 01:15:49;;;;;;;11.23;5.50;;;;;;;;;;5043147;28;20231;-75
2022/05/22 01:18:17;;;;;;;11.33;5.47;;;;;;;;;;5038126;28;20559;-75
2022/05/22 01:20:46;;;;;;;11.63;4.83;;;;;;;;;;5037228;28;20325;-75
2022/05/22 01:23:15;;;;;;;8.33;5.57;;;;;;;;;;5039841;28;20211;-75
2022/05/22 01:25:42;;;;;;;8.97;5.23;;;;;;;;;;5041561;28;20262;-75
2022/05/22 01:28:10;;;;;;;10.07;5.73;;;;;;;;;;5040069;28;20294;-74
2022/05/22 01:30:37;;;;;;;14.43;5.50;;;;;;;;;;5049279;28;20293;-75
2022/05/22 01:33:05;;;;;;;9.63;5.37;;;;;;;;;;5044010;28;20203;-75
2022/05/22 01:35:32;;;;;;;12.13;5.50;;;;;;;;;;5043326;28;20211;-75
2022/05/22 01:37:59;;;;;;;15.63;5.23;;;;;;;;;;5044759;28;20217;-75
2022/05/22 01:40:28;;;;;;;10.70;5.60;;;;;;;;;;5045000;28;20277;-75
2022/05/22 01:42:55;;;;;;;9.37;5.10;;;;;;;;;;5044652;28;20207;-75
2022/05/22 01:45:24;;;;;;;11.73;5.70;;;;;;;;;;5045065;28;20681;-75
2022/05/22 01:47:51;;;;;;;11.47;5.67;;;;;;;;;;5043953;28;20573;-75
2022/05/22 01:50:18;;;;;;;12.40;6.10;;;;;;;;;;5044499;28;20209;-75
2022/05/22 01:52:46;;;;;;;11.57;5.97;;;;;;;;;;5044195;28;20991;-75
2022/05/22 01:55:14;;;;;;;12.13;5.10;;;;;;;;;;5045422;28;20575;-75
2022/05/22 01:57:42;;;;;;;9.80;5.20;;;;;;;;;;5045229;28;20626;-75
2022/05/22 02:00:12;;;;;;;10.07;5.23;;;;;;;;;;5047226;28;20310;-75
2022/05/22 02:02:39;;;;;;;12.10;5.67;;;;;;;;;;5050383;28;20233;-75
2022/05/22 02:05:07;;;;;;;8.57;5.23;;;;;;;;;;5043943;28;20221;-75
2022/05/22 02:10:19;;;;;;;10.37;5.07;;;;;;;;;;5048296;28;20284;-75
2022/05/22 02:12:47;;;;;;;12.47;5.30;;;;;;;;;;5046158;28;20304;-75
2022/05/22 02:15:15;;;;;;;8.37;4.87;;;;;;;;;;5044265;28;20590;-75
2022/05/22 02:17:42;;;;;;;9.07;5.73;;;;;;;;;;5043823;28;20211;-75
2022/05/22 02:20:09;;;;;;;12.03;5.13;;;;;;;;;;5045855;28;20680;-75
2022/05/22 02:22:40;;;;;;;11.73;5.57;;;;;;;;;;5043357;28;20276;-75
2022/05/22 02:25:08;;;;;;;10.17;5.27;;;;;;;;;;5044832;28;20211;-75
2022/05/22 02:27:35;;;;;;;10.10;5.10;;;;;;;;;;5042853;28;20200;-75
2022/05/22 02:30:05;;;;;;;11.63;5.50;;;;;;;;;;5043143;28;20210;-75
2022/05/22 02:32:32;;;;;;;10.03;5.33;;;;;;;;;;5043122;28;20265;-75
2022/05/22 02:35:00;;;;;;;11.77;5.97;;;;;;;;;;5040026;28;20611;-75
2022/05/22 02:37:27;;;;;;;7.33;5.03;;;;;;;;;;5045375;28;20291;-74
2022/05/22 02:39:54;;;;;;;13.70;5.33;;;;;;;;;;5041952;28;20231;-75
2022/05/22 02:42:22;;;;;;;8.57;5.27;;;;;;;;;;5043762;28;20668;-75
2022/05/22 02:44:49;;;;;;;9.07;5.27;;;;;;;;;;5041438;28;20285;-75
2022/05/22 02:47:17;;;;;;;9.70;5.23;;;;;;;;;;5044559;28;20211;-75
2022/05/22 02:49:44;;;;;;;7.93;5.37;;;;;;;;;;5041882;28;20658;-75
2022/05/22 02:52:12;;;;;;;17.10;5.73;;;;;;;;;;5043739;28;20219;-75
2022/05/22 02:54:39;;;;;;;10.00;5.40;;;;;;;;;;5042128;28;20662;-75
2022/05/22 02:57:06;;;;;;;9.23;5.33;;;;;;;;;;5045285;28;20247;-75
2022/05/22 02:59:35;;;;;;;9.90;4.93;;;;;;;;;;5046823;28;20202;-75
2022/05/22 03:02:02;;;;;;;10.40;5.10;;;;;;;;;;5043471;28;20237;-75
2022/05/22 03:04:32;;;;;;;9.57;5.13;;;;;;;;;;5041487;28;20239;-75
2022/05/22 03:06:59;;;;;;;15.30;5.07;;;;;;;;;;5040782;28;20209;-75
2022/05/22 03:09:26;;;;;;;10.87;5.00;;;;;;;;;;5045653;28;20210;-75
2022/05/22 03:11:54;;;;;;;11.30;4.93;;;;;;;;;;5045504;28;20333;-75
2022/05/22 03:14:21;;;;;;;11.03;5.17;;;;;;;;;;5043344;28;20697;-74
2022/05/22 03:16:49;;;;;;;8.00;5.10;;;;;;;;;;5043437;28;20199;-75
2022/05/22 03:19:16;;;;;;;9.90;5.03;;;;;;;;;;5043806;28;20238;-75
2022/05/22 03:21:45;;;;;;;9.00;5.33;;;;;;;;;;5043691;28;20233;-75
2022/05/22 03:24:12;;;;;;;8.90;5.20;;;;;;;;;;5044204;28;20293;-75
2022/05/22 03:26:39;;;;;;;10.50;5.63;;;;;;;;;;5042312;28;20217;-75
2022/05/22 03:29:06;;;;;;;8.27;5.50;;;;;;;;;;5042484;28;20227;-74
2022/05/22 03:31:33;;;;;;;11.10;5.27;;;;;;;;;;5042752;28;20263;-74
2022/05/22 03:34:01;;;;;;;12.60;5.70;;;;;;;;;;5046455;28;20218;-74
2022/05/22 03:36:28;;;;;;;7.80;5.20;;;;;;;;;;5042471;28;20203;-75
2022/05/22 03:38:57;;;;;;;11.70;5.37;;;;;;;;;;5041639;28;20208;-75
2022/05/22 03:41:24;;;;;;;10.90;5.40;;;;;;;;;;5044489;28;20318;-75
2022/05/22 03:43:52;;;;;;;11.77;5.50;;;;;;;;;;5041836;28;20238;-75
2022/05/22 03:46:19;;;;;;;10.13;4.97;;;;;;;;;;5044219;28;20235;-75
2022/05/22 03:48:46;;;;;;;12.07;5.30;;;;;;;;;;5042912;28;20198;-74
2022/05/22 03:51:13;;;;;;;11.13;5.30;;;;;;;;;;5046326;28;20310;-74
2022/05/22 03:53:41;;;;;;;10.33;5.00;;;;;;;;;;5045490;28;20286;-75
2022/05/22 03:56:13;;;;;;;9.97;5.43;;;;;;;;;;5042071;28;20219;-75
2022/05/22 03:58:41;;;;;;;9.87;5.07;;;;;;;;;;5044520;28;20585;-75
2022/05/22 04:01:08;;;;;;;9.20;4.97;;;;;;;;;;5041917;28;20235;-75
2022/05/22 04:03:35;;;;;;;9.97;5.10;;;;;;;;;;5043772;28;20209;-75
2022/05/22 04:06:03;;;;;;;9.27;5.00;;;;;;;;;;5041515;28;20218;-75
2022/05/22 04:08:30;;;;;;;8.57;5.07;;;;;;;;;;5043212;28;20727;-75
2022/05/22 04:10:57;;;;;;;10.77;4.90;;;;;;;;;;5040982;28;20698;-75
2022/05/22 04:13:26;;;;;;;8.33;4.73;;;;;;;;;;5046160;28;20569;-75
2022/05/22 04:15:53;;;;;;;8.00;4.87;;;;;;;;;;5042895;28;20219;-75
2022/05/22 04:18:20;;;;;;;7.40;4.53;;;;;;;;;;5045265;28;20219;-75
2022/05/22 04:20:48;;;;;;;8.53;4.50;;;;;;;;;;5043369;28;20245;-75
2022/05/22 04:26:00;;;;;;;9.07;5.13;;;;;;;;;;5046720;28;20202;-75
2022/05/22 04:28:30;;;;;;;9.93;4.87;;;;;;;;;;5044809;28;20211;-75
2022/05/22 04:30:57;;;;;;;8.07;4.73;;;;;;;;;;5042471;28;20245;-75
2022/05/22 04:33:25;;;;;;;7.90;4.80;;;;;;;;;;5041735;28;20230;-75
2022/05/22 04:35:52;;;;;;;9.00;5.20;;;;;;;;;;5042735;28;20587;-75
2022/05/22 04:38:20;;;;;;;9.97;5.50;;;;;;;;;;5044114;28;20239;-75
2022/05/22 04:40:54;;;;;;;10.03;5.07;;;;;;;;;;5042551;28;20231;-75
2022/05/22 04:43:21;;;;;;;9.33;5.07;;;;;;;;;;5043076;28;20221;-75
2022/05/22 04:45:50;;;;;;;9.37;4.93;;;;;;;;;;5041436;28;20673;-74
2022/05/22 04:48:18;;;;;;;8.73;4.80;;;;;;;;;;5042209;28;20230;-75
2022/05/22 04:50:46;;;;;;;10.03;4.73;;;;;;;;;;5042754;28;20546;-75
2022/05/22 04:53:13;;;;;;;10.17;4.67;;;;;;;;;;5046036;28;20238;-75
2022/05/22 04:55:40;;;;;;;11.60;4.77;;;;;;;;;;5042528;28;20241;-75
2022/05/22 04:58:08;;;;;;;8.77;4.90;;;;;;;;;;5042999;28;20322;-75
2022/05/22 05:00:35;;;;;;;11.97;5.17;;;;;;;;;;5044411;28;21059;-75
2022/05/22 05:03:04;;;;;;;11.03;4.50;;;;;;;;;;5041519;28;20310;-75
2022/05/22 05:05:31;;;;;;;12.17;4.73;;;;;;;;;;5045197;28;20205;-75
2022/05/22 05:07:58;;;;;;;10.53;4.10;;;;;;;;;;5042324;28;20206;-75
2022/05/22 05:10:25;;;;;;;6.97;4.13;;;;;;;;;;5044157;28;20298;-75
2022/05/22 05:12:53;;;;;;;6.60;4.10;;;;;;;;;;5041143;28;20199;-75
2022/05/22 05:15:21;;;;;;;7.57;3.63;;;;;;;;;;5044364;28;20663;-75
2022/05/22 05:17:49;;;;;;;7.37;3.50;;;;;;;;;;5040422;28;20294;-75
2022/05/22 05:20:20;;;;;;;7.60;4.00;;;;;;;;;;5043119;28;20289;-75
2022/05/22 05:22:47;;;;;;;6.10;3.97;;;;;;;;;;5041456;28;20300;-75
2022/05/22 05:25:15;;;;;;;6.83;3.80;;;;;;;;;;5045471;28;20293;-75
2022/05/22 05:27:42;;;;;;;7.13;3.73;;;;;;;;;;5040428;28;20198;-73
2022/05/22 05:30:10;;;;;;;9.00;3.80;;;;;;;;;;5043736;28;20207;-74
2022/05/22 05:32:37;;;;;;;9.63;3.70;;;;;;;;;;5041117;28;20771;-74
2022/05/22 05:35:06;;;;;;;5.37;3.70;;;;;;;;;;5042076;28;20206;-74
2022/05/22 05:37:35;;;;;;;5.50;3.67;;;;;;;;;;5043840;28;20203;-74
2022/05/22 05:40:02;;;;;;;5.27;3.50;;;;;;;;;;5042541;28;20301;-75
2022/05/22 05:42:32;;;;;;;8.73;3.60;;;;;;;;;;5043755;28;20274;-74
2022/05/22 05:44:59;;;;;;;7.17;3.37;;;;;;;;;;5040588;28;20203;-74
2022/05/22 05:47:26;;;;;;;5.13;3.60;;;;;;;;;;5042158;28;20198;-74
2022/05/22 05:49:54;;;;;;;7.67;3.13;;;;;;;;;;5045317;28;20234;-75
2022/05/22 05:52:21;;;;;;;11.33;3.43;;;;;;;;;;5046113;28;20314;-75
2022/05/22 05:54:50;;;;;;;6.77;3.37;;;;;;;;;;5045307;28;20206;-74
2022/05/22 05:57:17;;;;;;;9.33;3.03;;;;;;;;;;5045138;28;20203;-74
2022/05/22 05:59:44;;;;;;;7.00;3.57;;;;;;;;;;5043702;28;20204;-74
2022/05/22 06:02:12;;;;;;;5.43;3.37;;;;;;;;;;5044974;28;20611;-74
2022/05/22 06:04:40;;;;;;;9.27;3.50;;;;;;;;;;5045630;28;20215;-75
2022/05/22 06:07:08;;;;;;;7.50;3.50;;;;;;;;;;5044039;28;20204;-74
2022/05/22 06:09:36;;;;;;;6.97;3.70;;;;;;;;;;5043704;28;20209;-74
2022/05/22 06:12:05;;;;;;;6.27;3.67;;;;;;;;;;5044874;28;20235;-74
2022/05/22 06:14:32;;;;;;;6.73;3.57;;;;;;;;;;5043609;28;20196;-74
2022/05/22 06:16:59;;;;;;;7.50;3.70;;;;;;;;;;5044111;28;20577;-74
2022/05/22 06:22:14;;;;;;;9.77;4.13;;;;;;;;;;5047842;28;20361;-74
2022/05/22 06:24:43;;;;;;;6.20;3.53;;;;;;;;;;5045145;28;20685;-75
2022/05/22 06:27:11;;;;;;;5.67;3.33;;;;;;;;;;5043015;28;20588;-75
2022/05/22 06:29:39;;;;;;;8.37;3.67;;;;;;;;;;5045881;28;20308;-75
2022/05/22 06:32:06;;;;;;;8.87;3.40;;;;;;;;;;5044004;28;20255;-74
2022/05/22 06:34:34;;;;;;;7.00;3.90;;;;;;;;;;5045509;28;20298;-74
2022/05/22 06:37:02;;;;;;;6.17;3.47;;;;;;;;;;5045421;28;20203;-75
2022/05/22 06:42:16;;;;;;;12.57;3.70;;;;;;;;;;5046423;28;20367;-74
2022/05/22 06:44:43;;;;;;;5.53;3.57;;;;;;;;;;5044346;28;20617;-75
2022/05/22 06:47:11;;;;;;;7.07;3.67;;;;;;;;;;5044353;28;20289;-74
2022/05/22 06:49:38;;;;;;;7.50;3.70;;;;;;;;;;5044767;28;20771;-74
2022/05/22 06:52:05;;;;;;;8.87;3.57;;;;;;;;;;5045140;28;20215;-74
2022/05/22 06:54:34;;;;;;;9.13;3.50;;;;;;;;;;5043273;28;20681;-74
2022/05/22 06:57:01;;;;;;;7.50;3.70;;;;;;;;;;5047224;28;20202;-74
2022/05/22 06:59:30;;;;;;;8.20;3.73;;;;;;;;;;5045527;28;20209;-74
2022/05/22 07:01:57;;;;;;;8.07;3.50;;;;;;;;;;5042740;28;20318;-74
2022/05/22 07:04:24;;;;;;;9.03;3.63;;;;;;;;;;5044208;28;20199;-74
2022/05/22 07:06:51;;;;;;;12.37;3.50;;;;;;;;;;5045397;28;20234;-74
2022/05/22 07:09:19;;;;;;;7.77;3.40;;;;;;;;;;5046793;28;20238;-74
2022/05/22 07:11:47;;;;;;;10.07;3.97;;;;;;;;;;5046819;28;20368;-74
2022/05/22 07:14:15;;;;;;;7.97;3.53;;;;;;;;;;5045615;28;20199;-75
2022/05/22 07:16:44;;;;;;;6.63;3.40;;;;;;;;;;5046386;28;20215;-74
2022/05/22 07:19:11;;;;;;;7.37;3.50;;;;;;;;;;5044101;28;20208;-73
2022/05/22 07:21:39;;;;;;;6.07;3.60;;;;;;;;;;5045316;28;20233;-74
2022/05/22 07:24:06;;;;;;;10.07;4.30;;;;;;;;;;5044552;28;20218;-74
2022/05/22 07:26:33;;;;;;;7.80;3.90;;;;;;;;;;5043439;28;20236;-74
2022/05/22 07:29:01;;;;;;;8.90;3.60;;;;;;;;;;5045352;28;20205;-74
2022/05/22 07:31:28;;;;;;;7.67;4.03;;;;;;;;;;5043671;28;20244;-75
2022/05/22 07:33:57;;;;;;;8.00;3.80;;;;;;;;;;5043817;28;20199;-75
2022/05/22 07:36:24;;;;;;;8.93;3.30;;;;;;;;;;5043868;28;20208;-74
2022/05/22 07:38:52;;;;;;;7.83;3.40;;;;;;;;;;5044461;28;20203;-75
2022/05/22 07:41:19;;;;;;;8.27;3.30;;;;;;;;;;5044923;28;20228;-74
2022/05/22 07:43:46;;;;;;;7.30;3.17;;;;;;;;;;5044178;28;20257;-75
2022/05/22 07:46:13;;;;;;;12.83;3.63;;;;;;;;;;5041567;28;20211;-75
2022/05/22 07:48:41;;;;;;;9.50;3.40;;;;;;;;;;5042895;28;20640;-75
2022/05/22 07:51:11;;;;;;;9.47;3.40;;;;;;;;;;5043508;28;20231;-75
2022/05/22 07:53:38;;;;;;;9.37;3.00;;;;;;;;;;5043203;28;20298;-75
2022/05/22 07:56:06;;;;;;;10.40;3.50;;;;;;;;;;5043854;28;20224;-75
2022/05/22 07:58:33;;;;;;;10.83;3.20;;;;;;;;;;5044551;28;20290;-75
2022/05/22 08:01:00;;;;;;;8.33;3.27;;;;;;;;;;5042624;28;20221;-75
2022/05/22 08:03:28;;;;;;;10.03;3.37;;;;;;;;;;5040000;28;20231;-75
2022/05/22 08:05:55;;;;;;;8.57;3.50;;;;;;;;;;5042373;28;20228;-75
2022/05/22 08:08:24;;;;;;;6.90;3.20;;;;;;;;;;5046285;28;20294;-74
2022/05/22 08:10:53;;;;;;;8.70;3.57;;;;;;;;;;5041148;28;20219;-75
2022/05/22 08:13:20;;;;;;;9.70;3.47;;;;;;;;;;5043193;28;20225;-75
2022/05/22 08:15:48;;;;;;;7.03;3.13;;;;;;;;;;5045366;28;20301;-75
2022/05/22 08:18:15;;;;;;;8.93;3.23;;;;;;;;;;5044933;28;20212;-75
2022/05/22 08:20:44;;;;;;;8.73;3.43;;;;;;;;;;5043633;28;20631;-75
2022/05/22 08:23:16;;;;;;;9.83;3.37;;;;;;;;;;5044304;28;20230;-75
2022/05/22 08:25:44;;;;;;;9.93;3.30;;;;;;;;;;5044769;28;20203;-75
2022/05/22 08:28:12;;;;;;;9.80;3.60;;;;;;;;;;5042486;28;20760;-75
2022/05/22 08:30:39;;;;;;;8.00;3.47;;;;;;;;;;5041630;28;20245;-75
2022/05/22 08:33:07;;;;;;;11.90;3.67;;;;;;;;;;5044764;28;20201;-75
2022/05/22 08:35:34;;;;;;;7.20;3.30;;;;;;;;;;5047020;28;20210;-74
2022/05/22 08:38:02;;;;;;;5.30;2.50;;;;;;;;;;5043164;28;20626;-75
2022/05/22 08:40:30;;;;;;;10.73;3.90;;;;;;;;;;5040838;28;20276;-75
2022/05/22 08:43:01;;;;;;;9.23;3.40;;;;;;;;;;5041472;28;20766;-75
2022/05/22 08:45:30;;;;;;;9.73;3.83;;;;;;;;;;5041440;28;20229;-75
2022/05/22 08:48:01;;;;;;;10.40;3.60;;;;;;;;;;5044644;28;20200;-75
2022/05/22 08:50:30;;;;;;;16.17;3.90;;;;;;;;;;5046190;28;20203;-75
2022/05/22 08:52:59;;;;;;;8.70;4.30;;;;;;;;;;5049088;28;20200;-75
2022/05/22 08:58:56;;;;;;;11.67;3.20;;;;;;;;;;5050393;28;20294;-75
2022/05/22 09:01:03;;;;;;;9.93;3.93;;;;;;;;;;5033578;28;20844;-74
2022/05/22 09:03:34;;;;;;;11.20;3.60;;;;;;;;;;5042197;28;20315;-74
2022/05/22 09:06:04;;;;;;;14.20;4.17;;;;;;;;;;5039416;28;20205;-74
2022/05/22 09:08:37;;;;;;;11.50;4.17;;;;;;;;;;5038900;28;20273;-75
2022/05/22 09:11:08;;;;;;;14.30;4.17;;;;;;;;;;5041904;28;20270;-74
2022/05/22 09:13:38;;;;;;;8.87;3.90;;;;;;;;;;5043821;28;20276;-74
2022/05/22 09:16:12;;;;;;;13.37;4.20;;;;;;;;;;5041892;28;20211;-74
2022/05/22 09:18:42;;;;;;;10.97;4.40;;;;;;;;;;5043233;28;20321;-74
2022/05/22 09:21:14;;;;;;;10.73;3.73;;;;;;;;;;5041314;28;20238;-74
2022/05/22 09:23:48;;;;;;;12.37;3.93;;;;;;;;;;5042402;28;20222;-75
2022/05/22 09:26:20;;;;;;;8.83;3.50;;;;;;;;;;5043594;28;20241;-74
2022/05/22 09:28:54;;;;;;;10.07;3.30;;;;;;;;;;5043851;28;20700;-74
2022/05/22 09:31:28;;;;;;;9.13;3.30;;;;;;;;;;5044904;28;20254;-74
2022/05/22 09:34:03;;;;;;;10.13;3.70;;;;;;;;;;5041059;28;20203;-74
2022/05/22 09:36:36;;;;;;;10.97;3.87;;;;;;;;;;5043342;28;20569;-75
2022/05/22 09:39:09;;;;;;;9.60;3.40;;;;;;;;;;5044642;28;20288;-74
2022/05/22 09:41:47;;;;;;;7.90;3.20;;;;;;;;;;5041512;28;20233;-75
2022/05/22 09:44:41;;;;;;;11.13;3.40;;;;;;;;;;5042331;28;20258;-75
2022/05/22 09:47:23;;;;;;;10.50;3.30;;;;;;;;;;5008770;28;20764;-75
2022/05/22 09:50:05;;;;;;;9.37;3.20;;;;;;;;;;5039396;28;20238;-75
2022/05/22 09:52:36;;;;;;;11.57;3.40;;;;;;;;;;5046127;28;20223;-75
2022/05/22 09:55:12;;;;;;;9.73;3.40;;;;;;;;;;5047284;28;20202;-74
2022/05/22 09:57:45;;;;;;;10.33;3.40;;;;;;;;;;5049395;28;20206;-74
2022/05/22 10:00:15;;;;;;;11.00;3.53;;;;;;;;;;5046823;28;20203;-75
2022/05/22 10:02:48;;;;;;;10.90;2.83;;;;;;;;;;5046666;28;20237;-75
2022/05/22 10:05:21;;;;;;;8.50;2.67;;;;;;;;;;5044660;28;20757;-75
2022/05/22 10:07:52;;;;;;;7.70;2.80;;;;;;;;;;5048970;28;20207;-75
2022/05/22 10:10:23;;;;;;;10.73;3.00;;;;;;;;;;5046624;28;20298;-75
2022/05/22 10:12:56;;;;;;;9.43;2.70;;;;;;;;;;5044643;28;20250;-75
2022/05/22 10:15:30;;;;;;;6.83;2.83;;;;;;;;;;5045384;28;20732;-74
2022/05/22 10:18:07;;;;;;;8.07;3.10;;;;;;;;;;5045878;28;20738;-74
2022/05/22 10:20:42;;;;;;;12.77;2.70;;;;;;;;;;5046022;28;20214;-74
2022/05/22 10:23:27;;;;;;;8.10;2.90;;;;;;;;;;5049027;28;20234;-75
2022/05/22 10:26:01;;;;;;;7.90;2.50;;;;;;;;;;5045187;28;20202;-75
2022/05/22 10:28:30;;;;;;;9.33;3.50;;;;;;;;;;5043683;28;20207;-74
2022/05/22 10:31:01;;;;;;;9.67;3.00;;;;;;;;;;5046046;28;20308;-74
2022/05/22 10:33:31;;;;;;;7.87;2.80;;;;;;;;;;5046627;28;20203;-74
2022/05/22 10:36:00;;;;;;;11.63;3.37;;;;;;;;;;5046784;28;20206;-75
2022/05/22 10:38:30;;;;;;;9.27;2.77;;;;;;;;;;5047298;28;20214;-75
2022/05/22 10:43:59;;;;;;;9.00;2.40;;;;;;;;;;4967336;28;20308;-74
2022/05/22 10:46:26;;;;;;;7.20;2.70;;;;;;;;;;4966607;28;20232;-75
2022/05/22 10:48:57;;;;;;;10.60;2.80;;;;;;;;;;5004667;28;20299;-74
2022/05/22 10:51:26;;;;;;;9.97;2.20;;;;;;;;;;5047588;28;20238;-75
2022/05/22 10:53:55;;;;;;;6.93;2.50;;;;;;;;;;5046847;28;20290;-75
2022/05/22 10:56:24;;;;;;;5.93;2.60;;;;;;;;;;5044436;28;20234;-75
2022/05/22 10:58:52;;;;;;;5.27;2.20;;;;;;;;;;5045881;28;20239;-75
2022/05/22 11:01:20;;;;;;;5.30;2.50;;;;;;;;;;5043661;28;20226;-74
2022/05/22 11:03:48;;;;;;;8.30;2.10;;;;;;;;;;5045544;28;20314;-75
2022/05/22 11:06:20;;;;;;;7.23;2.50;;;;;;;;;;5048203;28;20583;-75
2022/05/22 11:08:49;;;;;;;10.33;2.20;;;;;;;;;;5044292;28;20210;-73
2022/05/22 11:11:19;;;;;;;7.43;2.50;;;;;;;;;;5047519;28;20309;-75
2022/05/22 11:13:47;;;;;;;6.10;2.30;;;;;;;;;;5046032;28;20286;-75
2022/05/22 11:16:15;;;;;;;7.13;2.33;;;;;;;;;;5043394;28;20212;-76
2022/05/22 11:18:42;;;;;;;6.90;2.10;;;;;;;;;;5045220;28;20204;-75
2022/05/22 11:21:13;;;;;;;6.80;2.30;;;;;;;;;;5045298;28;20776;-76
2022/05/22 11:23:51;;;;;;;6.50;2.57;;;;;;;;;;5046559;28;20225;-75
2022/05/22 11:26:25;;;;;;;11.30;2.40;;;;;;;;;;5045638;28;20226;-74
2022/05/22 11:28:59;;;;;;;10.70;2.40;;;;;;;;;;5046017;28;20207;-75
2022/05/22 11:31:34;;;;;;;8.27;2.30;;;;;;;;;;5043774;28;20245;-75
2022/05/22 11:34:12;;;;;;;7.60;2.40;;;;;;;;;;5042476;28;20197;-75
2022/05/22 11:36:44;;;;;;;7.13;2.53;;;;;;;;;;5046093;28;20211;-75
2022/05/22 11:39:23;;;;;;;10.93;2.20;;;;;;;;;;5044446;28;20229;-75
2022/05/22 11:41:53;;;;;;;7.33;2.27;;;;;;;;;;5044967;28;20793;-75
2022/05/22 11:44:32;;;;;;;10.50;2.33;;;;;;;;;;5044672;28;20315;-76
2022/05/22 11:47:08;;;;;;;6.50;2.23;;;;;;;;;;5044419;28;20294;-75
2022/05/22 11:49:39;;;;;;;6.03;2.37;;;;;;;;;;5043452;28;20210;-75
2022/05/22 11:55:09;;;;;;;5.57;2.07;;;;;;;;;;5041962;28;20195;-75
2022/05/22 11:57:40;;;;;;;5.17;2.20;;;;;;;;;;5043912;28;20214;-75
2022/05/22 12:00:14;;;;;;;7.73;2.40;;;;;;;;;;5046345;28;20755;-75
2022/05/22 12:02:53;;;;;;;5.43;1.97;;;;;;;;;;5045081;28;20234;-75
2022/05/22 12:05:32;;;;;;;6.53;2.40;;;;;;;;;;5043089;28;20228;-75
2022/05/22 12:08:04;;;;;;;5.83;2.10;;;;;;;;;;5042446;28;20315;-74
2022/05/22 12:10:34;;;;;;;10.00;2.30;;;;;;;;;;5044244;28;20478;-75
2022/05/22 12:13:05;;;;;;;5.87;2.23;;;;;;;;;;5043192;28;20199;-74
2022/05/22 12:15:36;;;;;;;8.00;1.90;;;;;;;;;;5044488;28;20283;-74
2022/05/22 12:18:08;;;;;;;7.57;2.03;;;;;;;;;;5041783;28;20202;-75
2022/05/22 12:20:40;;;;;;;10.03;2.17;;;;;;;;;;5044828;28;20268;-75
2022/05/22 12:23:19;;;;;;;6.17;2.30;;;;;;;;;;5042895;28;20299;-75
2022/05/22 12:25:49;;;;;;;6.10;1.90;;;;;;;;;;5042129;28;20207;-74
2022/05/22 12:28:26;;;;;;;4.43;2.17;;;;;;;;;;5044716;28;20213;-74
2022/05/22 12:30:54;;;;;;;8.93;2.30;;;;;;;;;;5040590;28;20280;-75
2022/05/22 12:33:22;;;;;;;6.53;2.27;;;;;;;;;;5042966;28;20242;-74
2022/05/22 12:35:49;;;;;;;7.40;2.03;;;;;;;;;;5041709;28;20465;-75
2022/05/22 12:38:16;;;;;;;8.87;2.10;;;;;;;;;;5045524;28;20877;-74
2022/05/22 12:40:48;;;;;;;5.93;2.30;;;;;;;;;;5041102;28;20859;-75
2022/05/22 12:43:18;;;;;;;7.30;2.43;;;;;;;;;;5045175;28;20213;-75
2022/05/22 12:45:48;;;;;;;6.23;2.07;;;;;;;;;;5042031;28;20290;-74
2022/05/22 12:48:25;;;;;;;6.30;2.00;;;;;;;;;;5042859;28;20217;-74
2022/05/22 12:50:54;;;;;;;7.43;1.80;;;;;;;;;;5040396;28;20670;-75
2022/05/22 12:53:28;;;;;;;5.73;1.90;;;;;;;;;;5042004;28;20584;-75
2022/05/22 12:55:56;;;;;;;8.90;1.90;;;;;;;;;;5040157;28;20200;-75
2022/05/22 12:58:32;;;;;;;8.87;2.10;;;;;;;;;;5042854;28;20238;-74
2022/05/22 13:01:00;;;;;;;6.83;1.73;;;;;;;;;;5041073;28;20292;-75
2022/05/22 13:03:32;;;;;;;7.40;1.77;;;;;;;;;;5042871;28;20207;-75
2022/05/22 13:06:04;;;;;;;5.23;1.80;;;;;;;;;;5039246;28;20204;-75
2022/05/22 13:08:37;;;;;;;7.30;2.27;;;;;;;;;;5043089;28;20220;-75
2022/05/22 13:11:08;;;;;;;4.37;1.80;;;;;;;;;;5040945;28;20292;-75
2022/05/22 13:13:47;;;;;;;6.87;2.07;;;;;;;;;;5041279;28;20203;-75
2022/05/22 13:16:14;;;;;;;4.63;2.10;;;;;;;;;;5042237;28;20673;-75
2022/05/22 13:18:49;;;;;;;6.63;2.20;;;;;;;;;;5041398;28;20306;-74
2022/05/22 13:21:28;;;;;;;7.83;2.10;;;;;;;;;;5037529;28;20258;-74
2022/05/22 13:24:02;;;;;;;11.97;1.80;;;;;;;;;;5036544;28;20310;-74
2022/05/22 13:26:30;;;;;;;4.70;1.60;;;;;;;;;;5039710;28;20200;-75
2022/05/22 13:29:01;;;;;;;7.07;2.20;;;;;;;;;;5040355;28;20340;-75
2022/05/22 13:31:32;;;;;;;8.83;2.03;;;;;;;;;;5040500;28;20642;-75
2022/05/22 13:34:07;;;;;;;8.30;1.80;;;;;;;;;;5043338;28;20217;-75
2022/05/22 13:36:35;;;;;;;4.80;1.60;;;;;;;;;;5040216;28;20293;-75
2022/05/22 13:39:03;;;;;;;4.47;1.70;;;;;;;;;;5038889;28;20212;-75
2022/05/22 13:41:50;;;;;;;4.17;1.53;;;;;;;;;;5036178;28;20234;-75
2022/05/22 13:44:32;;;;;;;6.87;1.90;;;;;;;;;;5040273;28;20226;-74
2022/05/22 13:47:17;;;;;;;5.57;1.63;;;;;;;;;;5039384;28;20653;-74
2022/05/22 13:52:34;;;;;;;7.87;1.60;;;;;;;;;;5041620;28;20214;-75
2022/05/22 13:52:55;;;;;;;5.97;1.90;;;;;;;;;;5035454;28;20227;-74
2022/05/22 13:55:25;;;;;;;6.20;1.90;;;;;;;;;;5040972;28;20798;-75
2022/05/22 13:57:54;;;;;;;6.43;1.60;;;;;;;;;;5041988;28;20688;-75
2022/05/22 14:00:23;;;;;;;5.97;1.83;;;;;;;;;;5041412;28;20294;-75
2022/05/22 14:02:53;;;;;;;5.77;2.27;;;;;;;;;;5041548;28;20266;-75
2022/05/22 14:05:20;;;;;;;4.40;1.77;;;;;;;;;;5040305;28;20227;-74
2022/05/22 14:07:49;;;;;;;6.63;2.20;;;;;;;;;;5040605;28;20259;-75
2022/05/22 14:10:17;;;;;;;4.00;1.33;;;;;;;;;;5043334;28;20295;-75
2022/05/22 14:12:46;;;;;;;4.83;1.67;;;;;;;;;;5041983;28;20306;-75
2022/05/22 14:15:15;;;;;;;6.00;1.57;;;;;;;;;;5040656;28;20209;-75
2022/05/22 14:17:44;;;;;;;3.33;1.80;;;;;;;;;;5039352;28;20238;-76
2022/05/22 14:20:16;;;;;;;3.23;1.70;;;;;;;;;;5037587;28;20220;-75
2022/05/22 14:22:44;;;;;;;8.33;1.73;;;;;;;;;;5042083;28;20652;-75
2022/05/22 14:25:12;;;;;;;5.87;1.70;;;;;;;;;;5042000;28;20320;-74
2022/05/22 14:27:40;;;;;;;4.93;1.80;;;;;;;;;;5042382;28;20668;-74
2022/05/22 14:30:09;;;;;;;4.87;1.60;;;;;;;;;;5037663;28;20217;-74
2022/05/22 14:32:37;;;;;;;6.70;1.70;;;;;;;;;;5040247;28;20227;-74
2022/05/22 14:35:06;;;;;;;5.17;1.60;;;;;;;;;;5040240;28;20204;-74
2022/05/22 14:37:38;;;;;;;4.13;2.07;;;;;;;;;;5046248;28;20219;-75
2022/05/22 14:40:06;;;;;;;2.57;1.50;;;;;;;;;;5044302;28;20283;-75
2022/05/22 14:42:34;;;;;;;5.20;1.70;;;;;;;;;;5046178;28;20586;-74
2022/05/22 14:45:03;;;;;;;3.53;1.37;;;;;;;;;;5042589;28;20318;-75
2022/05/22 14:47:31;;;;;;;5.70;1.50;;;;;;;;;;5046047;28;20590;-75
2022/05/22 14:49:59;;;;;;;3.37;1.50;;;;;;;;;;5043740;28;20200;-74
2022/05/22 14:52:31;;;;;;;4.77;1.70;;;;;;;;;;5046912;28;20318;-75
2022/05/22 14:55:01;;;;;;;6.67;1.80;;;;;;;;;;5041202;28;20240;-75
2022/05/22 14:57:30;;;;;;;4.47;1.33;;;;;;;;;;5048479;28;20270;-74
2022/05/22 14:59:59;;;;;;;5.40;1.60;;;;;;;;;;5047666;28;20298;-75
2022/05/22 15:02:29;;;;;;;4.27;1.80;;;;;;;;;;5047366;28;20729;-75
2022/05/22 15:04:57;;;;;;;5.33;1.70;;;;;;;;;;5041152;28;20224;-74
2022/05/22 15:07:26;;;;;;;5.23;1.50;;;;;;;;;;5042287;28;20294;-74
2022/05/22 15:09:56;;;;;;;4.97;1.23;;;;;;;;;;5043026;28;20799;-74
2022/05/22 15:12:25;;;;;;;3.60;1.50;;;;;;;;;;5042556;28;20236;-73
2022/05/22 15:14:54;;;;;;;4.83;1.90;;;;;;;;;;5041933;28;20556;-74